sensor_id;sensor_type;location;lat;lon;timestamp;P1;durP1;ratioP1;P2;durP2;ratioP2
21213;SDS011;10764;50.850;2.904;2023-04-23T00:01:10;2.90;;;2.40;;
21213;SDS011;10764;50.850;2.904;2023-04-23T00:03:41;2.50;;;2.20;;
21213;SDS011;10764;50.850;2.904;2023-04-23T00:06:11;4.50;;;2.40;;
21213;SDS011;10764;50.850;2.904;2023-04-23T00:08:41;2.50;;;2.30;;
21213;SDS011;10764;50.850;2.904;2023-04-23T00:11:12;2.88;;;2.40;;
21213;SDS011;10764;50.850;2.904;2023-04-23T00:13:40;2.50;;;2.30;;
21213;SDS011;10764;50.850;2.904;2023-04-23T00:16:07;3.13;;;2.35;;
21213;SDS011;10764;50.850;2.904;2023-04-23T00:18:37;2.60;;;2.40;;
21213;SDS011;10764;50.850;2.904;2023-04-23T00:21:07;2.92;;;2.35;;
21213;SDS011;10764;50.850;2.904;2023-04-23T00:23:35;2.65;;;2.45;;
21213;SDS011;10764;50.850;2.904;2023-04-23T00:26:04;2.75;;;2.55;;
21213;SDS011;10764;50.850;2.904;2023-04-23T00:28:33;2.60;;;2.40;;
21213;SDS011;10764;50.850;2.904;2023-04-23T00:31:00;3.00;;;2.22;;
21213;SDS011;10764;50.850;2.904;2023-04-23T00:33:29;2.85;;;2.38;;
21213;SDS011;10764;50.850;2.904;2023-04-23T00:35:59;2.28;;;2.08;;
21213;SDS011;10764;50.850;2.904;2023-04-23T00:38:29;2.38;;;2.13;;
21213;SDS011;10764;50.850;2.904;2023-04-23T00:40:57;2.90;;;2.33;;
21213;SDS011;10764;50.850;2.904;2023-04-23T00:43:25;2.40;;;2.17;;
21213;SDS011;10764;50.850;2.904;2023-04-23T00:48:25;2.78;;;2.33;;
21213;SDS011;10764;50.850;2.904;2023-04-23T00:50:57;4.10;;;2.22;;
21213;SDS011;10764;50.850;2.904;2023-04-23T00:53:27;2.35;;;2.15;;
21213;SDS011;10764;50.850;2.904;2023-04-23T00:55:55;2.53;;;2.33;;
21213;SDS011;10764;50.850;2.904;2023-04-23T00:58:23;2.50;;;2.28;;
21213;SDS011;10764;50.850;2.904;2023-04-23T01:00:54;2.40;;;2.20;;
21213;SDS011;10764;50.850;2.904;2023-04-23T01:05:55;2.83;;;2.47;;
21213;SDS011;10764;50.850;2.904;2023-04-23T01:08:28;2.43;;;2.23;;
21213;SDS011;10764;50.850;2.904;2023-04-23T01:10:59;2.55;;;2.35;;
21213;SDS011;10764;50.850;2.904;2023-04-23T01:13:29;2.45;;;2.20;;
21213;SDS011;10764;50.850;2.904;2023-04-23T01:15:57;2.35;;;2.15;;
21213;SDS011;10764;50.850;2.904;2023-04-23T01:20:57;2.70;;;2.30;;
21213;SDS011;10764;50.850;2.904;2023-04-23T01:23:25;2.97;;;2.30;;
21213;SDS011;10764;50.850;2.904;2023-04-23T01:25:54;3.50;;;2.22;;
21213;SDS011;10764;50.850;2.904;2023-04-23T01:28:22;2.72;;;2.22;;
21213;SDS011;10764;50.850;2.904;2023-04-23T01:30:51;2.53;;;2.20;;
21213;SDS011;10764;50.850;2.904;2023-04-23T01:33:18;2.50;;;2.30;;
21213;SDS011;10764;50.850;2.904;2023-04-23T01:35:49;2.63;;;2.30;;
21213;SDS011;10764;50.850;2.904;2023-04-23T01:38:23;2.50;;;2.30;;
21213;SDS011;10764;50.850;2.904;2023-04-23T01:40:54;2.40;;;2.20;;
21213;SDS011;10764;50.850;2.904;2023-04-23T01:43:21;3.40;;;2.45;;
21213;SDS011;10764;50.850;2.904;2023-04-23T01:45:54;2.30;;;2.10;;
21213;SDS011;10764;50.850;2.904;2023-04-23T01:48:23;2.60;;;2.40;;
21213;SDS011;10764;50.850;2.904;2023-04-23T01:50:54;2.45;;;2.20;;
21213;SDS011;10764;50.850;2.904;2023-04-23T01:53:24;2.58;;;2.00;;
21213;SDS011;10764;50.850;2.904;2023-04-23T01:55:54;2.40;;;2.20;;
21213;SDS011;10764;50.850;2.904;2023-04-23T01:58:25;2.25;;;2.00;;
21213;SDS011;10764;50.850;2.904;2023-04-23T02:00:55;2.92;;;2.40;;
21213;SDS011;10764;50.850;2.904;2023-04-23T02:03:27;2.30;;;2.00;;
21213;SDS011;10764;50.850;2.904;2023-04-23T02:05:58;2.35;;;2.15;;
21213;SDS011;10764;50.850;2.904;2023-04-23T02:08:27;3.40;;;2.20;;
21213;SDS011;10764;50.850;2.904;2023-04-23T02:10:54;2.40;;;2.20;;
21213;SDS011;10764;50.850;2.904;2023-04-23T02:13:22;2.60;;;2.22;;
21213;SDS011;10764;50.850;2.904;2023-04-23T02:15:50;2.60;;;2.10;;
21213;SDS011;10764;50.850;2.904;2023-04-23T02:18:20;2.42;;;2.20;;
21213;SDS011;10764;50.850;2.904;2023-04-23T02:20:50;2.35;;;2.15;;
21213;SDS011;10764;50.850;2.904;2023-04-23T02:23:17;2.10;;;1.90;;
21213;SDS011;10764;50.850;2.904;2023-04-23T02:25:46;2.35;;;2.15;;
21213;SDS011;10764;50.850;2.904;2023-04-23T02:28:13;2.83;;;2.10;;
21213;SDS011;10764;50.850;2.904;2023-04-23T02:30:43;2.30;;;2.10;;
21213;SDS011;10764;50.850;2.904;2023-04-23T02:33:14;2.60;;;2.40;;
21213;SDS011;10764;50.850;2.904;2023-04-23T02:35:42;3.35;;;2.17;;
21213;SDS011;10764;50.850;2.904;2023-04-23T02:38:15;2.30;;;2.10;;
21213;SDS011;10764;50.850;2.904;2023-04-23T02:40:46;2.30;;;2.10;;
21213;SDS011;10764;50.850;2.904;2023-04-23T02:43:16;2.30;;;2.10;;
21213;SDS011;10764;50.850;2.904;2023-04-23T02:45:45;2.30;;;2.10;;
21213;SDS011;10764;50.850;2.904;2023-04-23T02:48:14;2.50;;;2.30;;
21213;SDS011;10764;50.850;2.904;2023-04-23T02:50:42;2.22;;;2.03;;
21213;SDS011;10764;50.850;2.904;2023-04-23T02:53:13;2.70;;;2.27;;
21213;SDS011;10764;50.850;2.904;2023-04-23T02:55:40;2.25;;;1.95;;
21213;SDS011;10764;50.850;2.904;2023-04-23T02:58:09;2.07;;;1.90;;
21213;SDS011;10764;50.850;2.904;2023-04-23T03:00:39;2.38;;;2.17;;
21213;SDS011;10764;50.850;2.904;2023-04-23T03:03:09;2.25;;;1.95;;
21213;SDS011;10764;50.850;2.904;2023-04-23T03:05:41;2.22;;;2.03;;
21213;SDS011;10764;50.850;2.904;2023-04-23T03:08:10;2.60;;;2.00;;
21213;SDS011;10764;50.850;2.904;2023-04-23T03:10:40;2.30;;;2.03;;
21213;SDS011;10764;50.850;2.904;2023-04-23T03:13:07;2.57;;;2.27;;
21213;SDS011;10764;50.850;2.904;2023-04-23T03:15:35;2.33;;;1.83;;
21213;SDS011;10764;50.850;2.904;2023-04-23T03:18:09;2.10;;;1.90;;
21213;SDS011;10764;50.850;2.904;2023-04-23T03:20:36;2.03;;;1.80;;
21213;SDS011;10764;50.850;2.904;2023-04-23T03:23:05;2.15;;;1.95;;
21213;SDS011;10764;50.850;2.904;2023-04-23T03:25:34;2.20;;;1.90;;
21213;SDS011;10764;50.850;2.904;2023-04-23T03:28:04;2.10;;;1.90;;
21213;SDS011;10764;50.850;2.904;2023-04-23T03:30:32;3.03;;;1.70;;
21213;SDS011;10764;50.850;2.904;2023-04-23T03:32:59;2.00;;;1.80;;
21213;SDS011;10764;50.850;2.904;2023-04-23T03:38:01;1.80;;;1.70;;
21213;SDS011;10764;50.850;2.904;2023-04-23T03:40:30;2.40;;;1.95;;
21213;SDS011;10764;50.850;2.904;2023-04-23T03:43:02;2.30;;;2.10;;
21213;SDS011;10764;50.850;2.904;2023-04-23T03:45:51;2.10;;;1.70;;
21213;SDS011;10764;50.850;2.904;2023-04-23T03:48:19;2.28;;;2.03;;
21213;SDS011;10764;50.850;2.904;2023-04-23T03:50:49;1.95;;;1.77;;
21213;SDS011;10764;50.850;2.904;2023-04-23T03:53:32;1.92;;;1.70;;
21213;SDS011;10764;50.850;2.904;2023-04-23T03:56:21;2.00;;;1.80;;
21213;SDS011;10764;50.850;2.904;2023-04-23T03:59:04;2.10;;;1.70;;
21213;SDS011;10764;50.850;2.904;2023-04-23T04:01:31;1.90;;;1.70;;
21213;SDS011;10764;50.850;2.904;2023-04-23T04:04:02;2.05;;;1.90;;
21213;SDS011;10764;50.850;2.904;2023-04-23T04:06:32;1.90;;;1.67;;
21213;SDS011;10764;50.850;2.904;2023-04-23T04:09:02;1.92;;;1.60;;
21213;SDS011;10764;50.850;2.904;2023-04-23T04:11:29;2.22;;;1.80;;
21213;SDS011;10764;50.850;2.904;2023-04-23T04:16:26;1.88;;;1.60;;
21213;SDS011;10764;50.850;2.904;2023-04-23T04:18:54;2.75;;;1.65;;
21213;SDS011;10764;50.850;2.904;2023-04-23T04:21:25;1.95;;;1.65;;
21213;SDS011;10764;50.850;2.904;2023-04-23T04:23:54;2.10;;;1.50;;
21213;SDS011;10764;50.850;2.904;2023-04-23T04:26:23;1.65;;;1.42;;
21213;SDS011;10764;50.850;2.904;2023-04-23T04:28:57;3.28;;;1.55;;
21213;SDS011;10764;50.850;2.904;2023-04-23T04:31:25;2.20;;;1.60;;
21213;SDS011;10764;50.850;2.904;2023-04-23T04:33:55;1.88;;;1.50;;
21213;SDS011;10764;50.850;2.904;2023-04-23T04:36:24;1.55;;;1.45;;
21213;SDS011;10764;50.850;2.904;2023-04-23T04:41:25;2.67;;;1.60;;
21213;SDS011;10764;50.850;2.904;2023-04-23T04:43:53;2.60;;;1.40;;
21213;SDS011;10764;50.850;2.904;2023-04-23T04:46:23;3.30;;;1.30;;
21213;SDS011;10764;50.850;2.904;2023-04-23T04:48:52;2.65;;;1.27;;
21213;SDS011;10764;50.850;2.904;2023-04-23T04:51:20;2.65;;;1.27;;
21213;SDS011;10764;50.850;2.904;2023-04-23T04:53:48;1.90;;;1.30;;
21213;SDS011;10764;50.850;2.904;2023-04-23T04:56:16;2.35;;;1.30;;
21213;SDS011;10764;50.850;2.904;2023-04-23T04:58:45;1.73;;;1.40;;
21213;SDS011;10764;50.850;2.904;2023-04-23T05:01:13;1.77;;;1.30;;
21213;SDS011;10764;50.850;2.904;2023-04-23T05:03:43;2.08;;;1.30;;
21213;SDS011;10764;50.850;2.904;2023-04-23T05:06:12;1.85;;;1.27;;
21213;SDS011;10764;50.850;2.904;2023-04-23T05:08:45;2.40;;;1.13;;
21213;SDS011;10764;50.850;2.904;2023-04-23T05:11:18;1.60;;;1.10;;
21213;SDS011;10764;50.850;2.904;2023-04-23T05:13:49;1.75;;;1.20;;
21213;SDS011;10764;50.850;2.904;2023-04-23T05:16:17;1.83;;;1.30;;
21213;SDS011;10764;50.850;2.904;2023-04-23T05:18:46;2.00;;;1.30;;
21213;SDS011;10764;50.850;2.904;2023-04-23T05:21:17;1.95;;;1.10;;
21213;SDS011;10764;50.850;2.904;2023-04-23T05:23:44;2.15;;;1.13;;
21213;SDS011;10764;50.850;2.904;2023-04-23T05:26:11;1.40;;;1.10;;
21213;SDS011;10764;50.850;2.904;2023-04-23T05:28:40;2.70;;;1.20;;
21213;SDS011;10764;50.850;2.904;2023-04-23T05:31:08;2.78;;;1.10;;
21213;SDS011;10764;50.850;2.904;2023-04-23T05:33:37;8.35;;;1.13;;
21213;SDS011;10764;50.850;2.904;2023-04-23T05:38:48;2.63;;;0.90;;
21213;SDS011;10764;50.850;2.904;2023-04-23T05:41:15;4.37;;;1.20;;
21213;SDS011;10764;50.850;2.904;2023-04-23T05:43:42;2.40;;;1.08;;
21213;SDS011;10764;50.850;2.904;2023-04-23T05:46:15;2.83;;;1.40;;
21213;SDS011;10764;50.850;2.904;2023-04-23T05:48:43;2.83;;;1.20;;
21213;SDS011;10764;50.850;2.904;2023-04-23T05:51:10;4.00;;;1.20;;
21213;SDS011;10764;50.850;2.904;2023-04-23T05:53:39;2.22;;;1.10;;
21213;SDS011;10764;50.850;2.904;2023-04-23T05:56:09;2.83;;;1.00;;
21213;SDS011;10764;50.850;2.904;2023-04-23T05:58:38;1.48;;;1.20;;
21213;SDS011;10764;50.850;2.904;2023-04-23T06:01:07;2.85;;;1.00;;
21213;SDS011;10764;50.850;2.904;2023-04-23T06:06:32;2.30;;;1.05;;
21213;SDS011;10764;50.850;2.904;2023-04-23T06:16:21;2.10;;;1.20;;
21213;SDS011;10764;50.850;2.904;2023-04-23T06:19:29;2.33;;;1.05;;
21213;SDS011;10764;50.850;2.904;2023-04-23T06:21:56;3.53;;;1.20;;
21213;SDS011;10764;50.850;2.904;2023-04-23T06:24:27;2.17;;;1.00;;
21213;SDS011;10764;50.850;2.904;2023-04-23T06:27:00;3.00;;;1.10;;
21213;SDS011;10764;50.850;2.904;2023-04-23T06:29:31;2.00;;;0.88;;
21213;SDS011;10764;50.850;2.904;2023-04-23T06:32:07;2.10;;;1.00;;
21213;SDS011;10764;50.850;2.904;2023-04-23T06:34:35;2.85;;;1.00;;
21213;SDS011;10764;50.850;2.904;2023-04-23T06:39:46;1.38;;;0.80;;
21213;SDS011;10764;50.850;2.904;2023-04-23T06:42:16;1.63;;;1.05;;
21213;SDS011;10764;50.850;2.904;2023-04-23T06:44:48;3.33;;;1.00;;
21213;SDS011;10764;50.850;2.904;2023-04-23T06:47:17;3.08;;;0.90;;
21213;SDS011;10764;50.850;2.904;2023-04-23T06:49:45;1.88;;;0.90;;
21213;SDS011;10764;50.850;2.904;2023-04-23T06:52:13;2.33;;;1.00;;
21213;SDS011;10764;50.850;2.904;2023-04-23T06:54:42;3.13;;;0.90;;
21213;SDS011;10764;50.850;2.904;2023-04-23T06:57:11;4.43;;;1.10;;
21213;SDS011;10764;50.850;2.904;2023-04-23T06:59:52;3.00;;;0.90;;
21213;SDS011;10764;50.850;2.904;2023-04-23T07:02:53;5.35;;;1.00;;
21213;SDS011;10764;50.850;2.904;2023-04-23T07:05:26;8.38;;;1.45;;
21213;SDS011;10764;50.850;2.904;2023-04-23T07:08:09;7.45;;;1.45;;
21213;SDS011;10764;50.850;2.904;2023-04-23T07:10:36;6.40;;;1.57;;
21213;SDS011;10764;50.850;2.904;2023-04-23T07:13:05;9.85;;;2.10;;
21213;SDS011;10764;50.850;2.904;2023-04-23T07:15:33;6.40;;;1.50;;
21213;SDS011;10764;50.850;2.904;2023-04-23T07:18:00;5.15;;;1.33;;
21213;SDS011;10764;50.850;2.904;2023-04-23T07:21:02;5.78;;;1.30;;
21213;SDS011;10764;50.850;2.904;2023-04-23T07:23:53;5.15;;;1.20;;
21213;SDS011;10764;50.850;2.904;2023-04-23T07:30:11;3.22;;;1.10;;
21213;SDS011;10764;50.850;2.904;2023-04-23T07:36:42;6.18;;;1.40;;
21213;SDS011;10764;50.850;2.904;2023-04-23T07:39:57;4.85;;;1.17;;
21213;SDS011;10764;50.850;2.904;2023-04-23T07:46:30;7.43;;;1.40;;
21213;SDS011;10764;50.850;2.904;2023-04-23T07:49:19;4.50;;;1.30;;
21213;SDS011;10764;50.850;2.904;2023-04-23T07:52:58;4.53;;;1.15;;
21213;SDS011;10764;50.850;2.904;2023-04-23T07:55:44;3.25;;;1.10;;
21213;SDS011;10764;50.850;2.904;2023-04-23T07:58:54;3.53;;;1.10;;
21213;SDS011;10764;50.850;2.904;2023-04-23T08:01:26;4.53;;;1.20;;
21213;SDS011;10764;50.850;2.904;2023-04-23T08:03:53;4.20;;;1.17;;
21213;SDS011;10764;50.850;2.904;2023-04-23T08:06:32;3.93;;;1.23;;
21213;SDS011;10764;50.850;2.904;2023-04-23T08:09:08;3.90;;;1.15;;
21213;SDS011;10764;50.850;2.904;2023-04-23T08:11:36;4.47;;;1.27;;
21213;SDS011;10764;50.850;2.904;2023-04-23T08:14:03;3.72;;;1.08;;
21213;SDS011;10764;50.850;2.904;2023-04-23T08:16:31;4.18;;;1.17;;
21213;SDS011;10764;50.850;2.904;2023-04-23T08:19:01;3.67;;;1.20;;
21213;SDS011;10764;50.850;2.904;2023-04-23T08:21:36;3.38;;;0.93;;
21213;SDS011;10764;50.850;2.904;2023-04-23T08:24:07;4.38;;;1.10;;
21213;SDS011;10764;50.850;2.904;2023-04-23T08:26:35;3.33;;;0.98;;
21213;SDS011;10764;50.850;2.904;2023-04-23T08:29:04;4.63;;;1.13;;
21213;SDS011;10764;50.850;2.904;2023-04-23T08:34:03;4.72;;;1.10;;
21213;SDS011;10764;50.850;2.904;2023-04-23T08:36:30;4.03;;;1.17;;
21213;SDS011;10764;50.850;2.904;2023-04-23T08:41:31;2.83;;;0.95;;
21213;SDS011;10764;50.850;2.904;2023-04-23T08:44:11;3.72;;;1.02;;
21213;SDS011;10764;50.850;2.904;2023-04-23T08:46:43;3.40;;;1.15;;
21213;SDS011;10764;50.850;2.904;2023-04-23T08:51:52;3.37;;;1.07;;
21213;SDS011;10764;50.850;2.904;2023-04-23T08:54:24;3.92;;;1.00;;
21213;SDS011;10764;50.850;2.904;2023-04-23T08:56:54;3.77;;;1.13;;
21213;SDS011;10764;50.850;2.904;2023-04-23T08:59:28;3.15;;;0.90;;
21213;SDS011;10764;50.850;2.904;2023-04-23T09:02:00;3.27;;;1.03;;
21213;SDS011;10764;50.850;2.904;2023-04-23T09:07:05;2.35;;;0.80;;
21213;SDS011;10764;50.850;2.904;2023-04-23T09:12:08;2.40;;;0.93;;
21213;SDS011;10764;50.850;2.904;2023-04-23T09:14:35;4.22;;;1.00;;
21213;SDS011;10764;50.850;2.904;2023-04-23T09:17:02;3.08;;;0.95;;
21213;SDS011;10764;50.850;2.904;2023-04-23T09:19:30;2.92;;;0.90;;
21213;SDS011;10764;50.850;2.904;2023-04-23T09:21:58;3.10;;;0.90;;
21213;SDS011;10764;50.850;2.904;2023-04-23T09:24:28;3.03;;;0.95;;
21213;SDS011;10764;50.850;2.904;2023-04-23T09:26:56;5.73;;;0.90;;
21213;SDS011;10764;50.850;2.904;2023-04-23T09:29:25;3.13;;;0.90;;
21213;SDS011;10764;50.850;2.904;2023-04-23T09:31:53;2.95;;;1.30;;
21213;SDS011;10764;50.850;2.904;2023-04-23T09:34:22;2.83;;;0.90;;
21213;SDS011;10764;50.850;2.904;2023-04-23T09:36:52;2.53;;;0.85;;
21213;SDS011;10764;50.850;2.904;2023-04-23T09:39:22;2.47;;;0.85;;
21213;SDS011;10764;50.850;2.904;2023-04-23T09:41:51;2.10;;;0.90;;
21213;SDS011;10764;50.850;2.904;2023-04-23T09:44:20;4.60;;;0.90;;
21213;SDS011;10764;50.850;2.904;2023-04-23T09:46:49;4.05;;;1.00;;
21213;SDS011;10764;50.850;2.904;2023-04-23T09:49:17;2.33;;;0.80;;
21213;SDS011;10764;50.850;2.904;2023-04-23T09:51:45;3.20;;;0.98;;
21213;SDS011;10764;50.850;2.904;2023-04-23T09:54:17;2.72;;;0.75;;
21213;SDS011;10764;50.850;2.904;2023-04-23T09:56:52;3.80;;;0.90;;
21213;SDS011;10764;50.850;2.904;2023-04-23T09:59:24;1.88;;;0.80;;
21213;SDS011;10764;50.850;2.904;2023-04-23T10:02:13;3.15;;;1.10;;
21213;SDS011;10764;50.850;2.904;2023-04-23T10:04:40;2.15;;;0.90;;
21213;SDS011;10764;50.850;2.904;2023-04-23T10:07:08;3.15;;;0.80;;
21213;SDS011;10764;50.850;2.904;2023-04-23T10:09:43;2.60;;;0.80;;
21213;SDS011;10764;50.850;2.904;2023-04-23T10:12:12;2.50;;;0.80;;
21213;SDS011;10764;50.850;2.904;2023-04-23T10:15:00;3.28;;;0.90;;
21213;SDS011;10764;50.850;2.904;2023-04-23T10:20:02;2.25;;;0.77;;
21213;SDS011;10764;50.850;2.904;2023-04-23T10:22:32;3.47;;;0.93;;
21213;SDS011;10764;50.850;2.904;2023-04-23T10:25:03;2.87;;;0.97;;
21213;SDS011;10764;50.850;2.904;2023-04-23T10:27:38;2.53;;;0.70;;
21213;SDS011;10764;50.850;2.904;2023-04-23T10:30:20;3.58;;;0.90;;
21213;SDS011;10764;50.850;2.904;2023-04-23T10:32:49;1.90;;;0.90;;
21213;SDS011;10764;50.850;2.904;2023-04-23T10:35:18;1.57;;;0.70;;
21213;SDS011;10764;50.850;2.904;2023-04-23T10:37:45;2.63;;;0.90;;
21213;SDS011;10764;50.850;2.904;2023-04-23T10:40:19;2.70;;;0.95;;
21213;SDS011;10764;50.850;2.904;2023-04-23T10:42:53;2.22;;;0.80;;
21213;SDS011;10764;50.850;2.904;2023-04-23T10:45:22;2.40;;;0.80;;
21213;SDS011;10764;50.850;2.904;2023-04-23T10:47:54;1.77;;;0.80;;
21213;SDS011;10764;50.850;2.904;2023-04-23T10:50:29;1.83;;;0.77;;
21213;SDS011;10764;50.850;2.904;2023-04-23T10:53:02;2.42;;;0.80;;
21213;SDS011;10764;50.850;2.904;2023-04-23T10:55:31;2.37;;;0.70;;
21213;SDS011;10764;50.850;2.904;2023-04-23T10:58:06;1.90;;;0.70;;
21213;SDS011;10764;50.850;2.904;2023-04-23T11:06:13;1.92;;;0.68;;
21213;SDS011;10764;50.850;2.904;2023-04-23T11:12:12;1.77;;;0.63;;
21213;SDS011;10764;50.850;2.904;2023-04-23T11:14:52;2.10;;;0.70;;
21213;SDS011;10764;50.850;2.904;2023-04-23T11:17:22;2.05;;;0.70;;
21213;SDS011;10764;50.850;2.904;2023-04-23T11:20:10;2.58;;;0.90;;
21213;SDS011;10764;50.850;2.904;2023-04-23T11:25:15;1.73;;;0.75;;
21213;SDS011;10764;50.850;2.904;2023-04-23T11:27:49;2.50;;;0.70;;
21213;SDS011;10764;50.850;2.904;2023-04-23T11:30:22;2.47;;;0.77;;
21213;SDS011;10764;50.850;2.904;2023-04-23T11:32:54;2.05;;;0.70;;
21213;SDS011;10764;50.850;2.904;2023-04-23T11:35:23;2.20;;;0.70;;
21213;SDS011;10764;50.850;2.904;2023-04-23T11:37:56;2.70;;;0.82;;
21213;SDS011;10764;50.850;2.904;2023-04-23T11:40:24;1.95;;;0.60;;
21213;SDS011;10764;50.850;2.904;2023-04-23T11:42:59;2.08;;;0.70;;
21213;SDS011;10764;50.850;2.904;2023-04-23T11:45:29;2.22;;;0.77;;
21213;SDS011;10764;50.850;2.904;2023-04-23T11:47:59;2.50;;;0.77;;
21213;SDS011;10764;50.850;2.904;2023-04-23T11:50:27;1.85;;;0.60;;
21213;SDS011;10764;50.850;2.904;2023-04-23T11:53:18;2.20;;;0.70;;
21213;SDS011;10764;50.850;2.904;2023-04-23T11:55:48;1.95;;;0.63;;
21213;SDS011;10764;50.850;2.904;2023-04-23T11:58:18;1.67;;;0.63;;
21213;SDS011;10764;50.850;2.904;2023-04-23T12:00:47;2.03;;;0.65;;
21213;SDS011;10764;50.850;2.904;2023-04-23T12:03:17;2.10;;;0.52;;
21213;SDS011;10764;50.850;2.904;2023-04-23T12:05:44;1.40;;;0.70;;
21213;SDS011;10764;50.850;2.904;2023-04-23T12:08:16;2.28;;;0.82;;
21213;SDS011;10764;50.850;2.904;2023-04-23T12:10:53;4.25;;;0.90;;
21213;SDS011;10764;50.850;2.904;2023-04-23T12:15:57;2.40;;;0.68;;
21213;SDS011;10764;50.850;2.904;2023-04-23T12:18:28;2.08;;;0.70;;
21213;SDS011;10764;50.850;2.904;2023-04-23T12:21:05;2.00;;;0.70;;
21213;SDS011;10764;50.850;2.904;2023-04-23T12:26:12;1.63;;;0.52;;
21213;SDS011;10764;50.850;2.904;2023-04-23T12:28:53;2.38;;;0.60;;
21213;SDS011;10764;50.850;2.904;2023-04-23T12:31:25;2.05;;;0.52;;
21213;SDS011;10764;50.850;2.904;2023-04-23T12:34:03;2.40;;;0.80;;
21213;SDS011;10764;50.850;2.904;2023-04-23T12:36:31;2.10;;;0.52;;
21213;SDS011;10764;50.850;2.904;2023-04-23T12:41:52;2.55;;;0.77;;
21213;SDS011;10764;50.850;2.904;2023-04-23T12:44:28;2.72;;;0.80;;
21213;SDS011;10764;50.850;2.904;2023-04-23T12:46:57;1.50;;;0.60;;
21213;SDS011;10764;50.850;2.904;2023-04-23T12:49:27;1.10;;;0.50;;
21213;SDS011;10764;50.850;2.904;2023-04-23T12:51:57;2.60;;;1.05;;
21213;SDS011;10764;50.850;2.904;2023-04-23T12:54:29;2.33;;;0.70;;
21213;SDS011;10764;50.850;2.904;2023-04-23T12:56:59;1.90;;;0.70;;
21213;SDS011;10764;50.850;2.904;2023-04-23T12:59:31;1.70;;;0.80;;
21213;SDS011;10764;50.850;2.904;2023-04-23T13:02:00;1.88;;;0.80;;
21213;SDS011;10764;50.850;2.904;2023-04-23T13:04:31;1.95;;;0.70;;
21213;SDS011;10764;50.850;2.904;2023-04-23T13:07:03;1.17;;;0.50;;
21213;SDS011;10764;50.850;2.904;2023-04-23T13:09:33;1.48;;;0.68;;
21213;SDS011;10764;50.850;2.904;2023-04-23T13:14:32;1.60;;;0.65;;
21213;SDS011;10764;50.850;2.904;2023-04-23T13:17:00;1.83;;;0.60;;
21213;SDS011;10764;50.850;2.904;2023-04-23T13:19:30;1.60;;;0.67;;
21213;SDS011;10764;50.850;2.904;2023-04-23T13:21:57;1.08;;;0.60;;
21213;SDS011;10764;50.850;2.904;2023-04-23T13:24:25;1.25;;;0.40;;
21213;SDS011;10764;50.850;2.904;2023-04-23T13:26:53;1.50;;;0.63;;
21213;SDS011;10764;50.850;2.904;2023-04-23T13:31:55;2.10;;;0.70;;
21213;SDS011;10764;50.850;2.904;2023-04-23T13:34:27;1.60;;;0.60;;
21213;SDS011;10764;50.850;2.904;2023-04-23T13:36:57;1.85;;;0.70;;
21213;SDS011;10764;50.850;2.904;2023-04-23T13:39:27;1.30;;;0.50;;
21213;SDS011;10764;50.850;2.904;2023-04-23T13:41:54;1.00;;;0.50;;
21213;SDS011;10764;50.850;2.904;2023-04-23T13:44:35;1.40;;;0.50;;
21213;SDS011;10764;50.850;2.904;2023-04-23T13:47:02;1.20;;;0.52;;
21213;SDS011;10764;50.850;2.904;2023-04-23T13:52:01;1.55;;;0.57;;
21213;SDS011;10764;50.850;2.904;2023-04-23T13:54:32;1.45;;;0.50;;
21213;SDS011;10764;50.850;2.904;2023-04-23T13:57:03;1.60;;;0.50;;
21213;SDS011;10764;50.850;2.904;2023-04-23T13:59:31;1.70;;;0.60;;
21213;SDS011;10764;50.850;2.904;2023-04-23T14:01:59;1.60;;;0.60;;
21213;SDS011;10764;50.850;2.904;2023-04-23T14:04:27;1.40;;;0.60;;
21213;SDS011;10764;50.850;2.904;2023-04-23T14:07:00;1.60;;;0.60;;
21213;SDS011;10764;50.850;2.904;2023-04-23T14:09:30;1.37;;;0.60;;
21213;SDS011;10764;50.850;2.904;2023-04-23T14:11:57;1.40;;;0.57;;
21213;SDS011;10764;50.850;2.904;2023-04-23T14:14:26;2.40;;;0.60;;
21213;SDS011;10764;50.850;2.904;2023-04-23T14:16:53;0.85;;;0.50;;
21213;SDS011;10764;50.850;2.904;2023-04-23T14:19:20;1.27;;;0.52;;
21213;SDS011;10764;50.850;2.904;2023-04-23T14:21:46;1.25;;;0.50;;
21213;SDS011;10764;50.850;2.904;2023-04-23T14:24:38;1.55;;;0.60;;
21213;SDS011;10764;50.850;2.904;2023-04-23T14:27:12;1.58;;;0.57;;
21213;SDS011;10764;50.850;2.904;2023-04-23T14:29:56;1.00;;;0.40;;
21213;SDS011;10764;50.850;2.904;2023-04-23T14:32:27;1.52;;;0.60;;
21213;SDS011;10764;50.850;2.904;2023-04-23T14:34:55;0.68;;;0.40;;
21213;SDS011;10764;50.850;2.904;2023-04-23T14:37:22;0.75;;;0.52;;
21213;SDS011;10764;50.850;2.904;2023-04-23T14:39:50;0.90;;;0.45;;
21213;SDS011;10764;50.850;2.904;2023-04-23T14:42:18;0.90;;;0.50;;
21213;SDS011;10764;50.850;2.904;2023-04-23T14:44:45;1.27;;;0.60;;
21213;SDS011;10764;50.850;2.904;2023-04-23T14:47:12;1.08;;;0.55;;
21213;SDS011;10764;50.850;2.904;2023-04-23T14:49:41;0.98;;;0.52;;
21213;SDS011;10764;50.850;2.904;2023-04-23T14:54:39;1.58;;;0.70;;
21213;SDS011;10764;50.850;2.904;2023-04-23T14:57:09;1.50;;;0.70;;
21213;SDS011;10764;50.850;2.904;2023-04-23T14:59:37;1.75;;;0.65;;
21213;SDS011;10764;50.850;2.904;2023-04-23T15:02:06;1.20;;;0.50;;
21213;SDS011;10764;50.850;2.904;2023-04-23T15:04:35;1.37;;;0.67;;
21213;SDS011;10764;50.850;2.904;2023-04-23T15:07:03;0.95;;;0.50;;
21213;SDS011;10764;50.850;2.904;2023-04-23T15:09:31;1.40;;;0.60;;
21213;SDS011;10764;50.850;2.904;2023-04-23T15:11:58;1.10;;;0.50;;
21213;SDS011;10764;50.850;2.904;2023-04-23T15:16:56;0.70;;;0.50;;
21213;SDS011;10764;50.850;2.904;2023-04-23T15:19:24;1.70;;;0.55;;
21213;SDS011;10764;50.850;2.904;2023-04-23T15:21:55;1.17;;;0.60;;
21213;SDS011;10764;50.850;2.904;2023-04-23T15:24:22;0.90;;;0.40;;
21213;SDS011;10764;50.850;2.904;2023-04-23T15:26:50;1.02;;;0.57;;
21213;SDS011;10764;50.850;2.904;2023-04-23T15:29:19;1.00;;;0.50;;
21213;SDS011;10764;50.850;2.904;2023-04-23T15:31:48;1.23;;;0.55;;
21213;SDS011;10764;50.850;2.904;2023-04-23T15:34:17;0.97;;;0.50;;
21213;SDS011;10764;50.850;2.904;2023-04-23T15:36:50;1.15;;;0.70;;
21213;SDS011;10764;50.850;2.904;2023-04-23T15:39:17;1.30;;;0.60;;
21213;SDS011;10764;50.850;2.904;2023-04-23T15:41:45;1.48;;;0.68;;
21213;SDS011;10764;50.850;2.904;2023-04-23T15:44:13;0.90;;;0.60;;
21213;SDS011;10764;50.850;2.904;2023-04-23T15:46:41;0.80;;;0.50;;
21213;SDS011;10764;50.850;2.904;2023-04-23T15:49:09;1.67;;;0.50;;
21213;SDS011;10764;50.850;2.904;2023-04-23T15:51:37;0.98;;;0.60;;
21213;SDS011;10764;50.850;2.904;2023-04-23T15:54:04;1.35;;;0.60;;
21213;SDS011;10764;50.850;2.904;2023-04-23T15:56:34;0.75;;;0.45;;
21213;SDS011;10764;50.850;2.904;2023-04-23T15:59:04;1.40;;;0.60;;
21213;SDS011;10764;50.850;2.904;2023-04-23T16:01:33;1.55;;;0.60;;
21213;SDS011;10764;50.850;2.904;2023-04-23T16:04:04;1.23;;;0.60;;
21213;SDS011;10764;50.850;2.904;2023-04-23T16:06:37;1.20;;;0.60;;
21213;SDS011;10764;50.850;2.904;2023-04-23T16:09:05;1.00;;;0.50;;
21213;SDS011;10764;50.850;2.904;2023-04-23T16:11:36;1.00;;;0.50;;
21213;SDS011;10764;50.850;2.904;2023-04-23T16:14:05;0.80;;;0.50;;
21213;SDS011;10764;50.850;2.904;2023-04-23T16:16:35;1.33;;;0.70;;
21213;SDS011;10764;50.850;2.904;2023-04-23T16:19:06;1.98;;;0.80;;
21213;SDS011;10764;50.850;2.904;2023-04-23T16:21:34;0.70;;;0.53;;
21213;SDS011;10764;50.850;2.904;2023-04-23T16:24:01;1.42;;;0.50;;
21213;SDS011;10764;50.850;2.904;2023-04-23T16:26:29;1.00;;;0.60;;
21213;SDS011;10764;50.850;2.904;2023-04-23T16:28:58;1.10;;;0.60;;
21213;SDS011;10764;50.850;2.904;2023-04-23T16:31:45;0.90;;;0.68;;
21213;SDS011;10764;50.850;2.904;2023-04-23T16:34:13;0.85;;;0.60;;
21213;SDS011;10764;50.850;2.904;2023-04-23T16:36:41;0.85;;;0.60;;
21213;SDS011;10764;50.850;2.904;2023-04-23T16:39:09;2.20;;;0.50;;
21213;SDS011;10764;50.850;2.904;2023-04-23T16:41:38;1.38;;;0.50;;